sensor_id;sensor_type;location;lat;lon;timestamp;P1;durP1;ratioP1;P2;durP2;ratioP2
55776;SDS011;54079;44.540;18.784;2023-07-20T00:02:01;4.85;;;2.67;;
55776;SDS011;54079;44.540;18.784;2023-07-20T00:04:28;4.22;;;2.63;;
55776;SDS011;54079;44.540;18.784;2023-07-20T00:06:53;3.70;;;3.22;;
55776;SDS011;54079;44.540;18.784;2023-07-20T00:09:20;4.57;;;3.53;;
55776;SDS011;54079;44.540;18.784;2023-07-20T00:11:50;3.33;;;2.92;;
55776;SDS011;54079;44.540;18.784;2023-07-20T00:14:16;2.33;;;2.13;;
55776;SDS011;54079;44.540;18.784;2023-07-20T00:16:43;2.90;;;2.60;;
55776;SDS011;54079;44.540;18.784;2023-07-20T00:19:11;4.22;;;2.63;;
55776;SDS011;54079;44.540;18.784;2023-07-20T00:21:38;2.63;;;2.00;;
55776;SDS011;54079;44.540;18.784;2023-07-20T00:24:05;2.60;;;2.40;;
55776;SDS011;54079;44.540;18.784;2023-07-20T00:26:31;3.92;;;2.72;;
55776;SDS011;54079;44.540;18.784;2023-07-20T00:28:57;5.25;;;2.92;;
55776;SDS011;54079;44.540;18.784;2023-07-20T00:31:23;2.85;;;2.55;;
55776;SDS011;54079;44.540;18.784;2023-07-20T00:33:49;5.45;;;2.88;;
55776;SDS011;54079;44.540;18.784;2023-07-20T00:36:15;3.15;;;2.70;;
55776;SDS011;54079;44.540;18.784;2023-07-20T00:38:41;4.90;;;2.10;;
55776;SDS011;54079;44.540;18.784;2023-07-20T00:41:07;4.30;;;2.53;;
55776;SDS011;54079;44.540;18.784;2023-07-20T00:43:33;3.38;;;2.72;;
55776;SDS011;54079;44.540;18.784;2023-07-20T00:45:59;5.28;;;2.38;;
55776;SDS011;54079;44.540;18.784;2023-07-20T00:48:25;2.60;;;2.35;;
55776;SDS011;54079;44.540;18.784;2023-07-20T00:50:51;3.97;;;2.15;;
55776;SDS011;54079;44.540;18.784;2023-07-20T00:53:17;1.98;;;1.83;;
55776;SDS011;54079;44.540;18.784;2023-07-20T00:55:44;2.05;;;1.85;;
55776;SDS011;54079;44.540;18.784;2023-07-20T00:58:10;6.82;;;2.55;;
55776;SDS011;54079;44.540;18.784;2023-07-20T01:00:36;9.93;;;3.33;;
55776;SDS011;54079;44.540;18.784;2023-07-20T01:03:02;5.40;;;2.90;;
55776;SDS011;54079;44.540;18.784;2023-07-20T01:05:32;2.80;;;2.25;;
55776;SDS011;54079;44.540;18.784;2023-07-20T01:08:24;2.50;;;2.30;;
55776;SDS011;54079;44.540;18.784;2023-07-20T01:11:06;2.22;;;1.63;;
55776;SDS011;54079;44.540;18.784;2023-07-20T01:13:41;2.33;;;2.15;;
55776;SDS011;54079;44.540;18.784;2023-07-20T01:16:09;2.20;;;1.80;;
55776;SDS011;54079;44.540;18.784;2023-07-20T01:18:34;3.17;;;2.55;;
55776;SDS011;54079;44.540;18.784;2023-07-20T01:21:06;3.30;;;2.28;;
55776;SDS011;54079;44.540;18.784;2023-07-20T01:23:57;2.03;;;1.90;;
55776;SDS011;54079;44.540;18.784;2023-07-20T01:29:43;2.15;;;1.95;;
55776;SDS011;54079;44.540;18.784;2023-07-20T01:32:11;2.80;;;1.55;;
55776;SDS011;54079;44.540;18.784;2023-07-20T01:34:39;4.03;;;2.28;;
55776;SDS011;54079;44.540;18.784;2023-07-20T01:37:06;2.38;;;2.03;;
55776;SDS011;54079;44.540;18.784;2023-07-20T01:39:33;3.25;;;1.80;;
55776;SDS011;54079;44.540;18.784;2023-07-20T01:42:01;2.78;;;1.88;;
55776;SDS011;54079;44.540;18.784;2023-07-20T01:44:27;7.07;;;3.75;;
55776;SDS011;54079;44.540;18.784;2023-07-20T01:46:54;2.42;;;2.15;;
55776;SDS011;54079;44.540;18.784;2023-07-20T01:49:20;4.25;;;2.50;;
55776;SDS011;54079;44.540;18.784;2023-07-20T01:51:46;5.68;;;2.97;;
55776;SDS011;54079;44.540;18.784;2023-07-20T01:54:11;5.30;;;3.05;;
55776;SDS011;54079;44.540;18.784;2023-07-20T01:56:37;3.63;;;2.08;;
55776;SDS011;54079;44.540;18.784;2023-07-20T01:59:03;3.83;;;2.20;;
55776;SDS011;54079;44.540;18.784;2023-07-20T02:01:29;2.25;;;1.80;;
55776;SDS011;54079;44.540;18.784;2023-07-20T02:03:55;6.57;;;3.72;;
55776;SDS011;54079;44.540;18.784;2023-07-20T02:06:21;3.13;;;2.60;;
55776;SDS011;54079;44.540;18.784;2023-07-20T02:08:47;5.75;;;3.72;;
55776;SDS011;54079;44.540;18.784;2023-07-20T02:11:12;42.83;;;33.17;;
55776;SDS011;54079;44.540;18.784;2023-07-20T02:13:38;56.85;;;45.83;;
55776;SDS011;54079;44.540;18.784;2023-07-20T02:16:04;45.70;;;39.28;;
55776;SDS011;54079;44.540;18.784;2023-07-20T02:20:55;58.20;;;46.60;;
55776;SDS011;54079;44.540;18.784;2023-07-20T02:23:21;66.35;;;53.25;;
55776;SDS011;54079;44.540;18.784;2023-07-20T02:25:47;52.80;;;40.30;;
55776;SDS011;54079;44.540;18.784;2023-07-20T02:28:13;45.97;;;36.83;;
55776;SDS011;54079;44.540;18.784;2023-07-20T02:30:40;41.92;;;35.95;;
55776;SDS011;54079;44.540;18.784;2023-07-20T02:33:06;30.17;;;27.05;;
55776;SDS011;54079;44.540;18.784;2023-07-20T02:35:32;28.05;;;25.20;;
55776;SDS011;54079;44.540;18.784;2023-07-20T02:37:58;23.63;;;21.08;;
55776;SDS011;54079;44.540;18.784;2023-07-20T02:40:24;29.20;;;26.45;;
55776;SDS011;54079;44.540;18.784;2023-07-20T02:42:50;29.15;;;25.58;;
55776;SDS011;54079;44.540;18.784;2023-07-20T02:45:16;22.05;;;19.92;;
55776;SDS011;54079;44.540;18.784;2023-07-20T02:47:42;23.08;;;20.70;;
55776;SDS011;54079;44.540;18.784;2023-07-20T02:50:08;27.20;;;24.30;;
55776;SDS011;54079;44.540;18.784;2023-07-20T02:52:34;25.90;;;22.92;;
55776;SDS011;54079;44.540;18.784;2023-07-20T02:55:00;26.33;;;23.40;;
55776;SDS011;54079;44.540;18.784;2023-07-20T02:57:26;21.48;;;19.27;;
55776;SDS011;54079;44.540;18.784;2023-07-20T02:59:52;27.50;;;24.58;;
55776;SDS011;54079;44.540;18.784;2023-07-20T03:02:19;22.40;;;19.77;;
55776;SDS011;54079;44.540;18.784;2023-07-20T03:04:45;23.73;;;21.17;;
55776;SDS011;54079;44.540;18.784;2023-07-20T03:07:10;18.65;;;16.75;;
55776;SDS011;54079;44.540;18.784;2023-07-20T03:09:36;24.02;;;21.25;;
55776;SDS011;54079;44.540;18.784;2023-07-20T03:12:02;20.95;;;17.60;;
55776;SDS011;54079;44.540;18.784;2023-07-20T03:14:30;17.73;;;15.82;;
55776;SDS011;54079;44.540;18.784;2023-07-20T03:16:55;15.40;;;13.60;;
55776;SDS011;54079;44.540;18.784;2023-07-20T03:19:21;14.48;;;13.05;;
55776;SDS011;54079;44.540;18.784;2023-07-20T03:21:47;10.88;;;9.73;;
55776;SDS011;54079;44.540;18.784;2023-07-20T03:24:13;12.27;;;10.00;;
55776;SDS011;54079;44.540;18.784;2023-07-20T03:26:39;10.32;;;7.72;;
55776;SDS011;54079;44.540;18.784;2023-07-20T03:29:05;7.32;;;6.63;;
55776;SDS011;54079;44.540;18.784;2023-07-20T03:31:31;7.78;;;7.05;;
55776;SDS011;54079;44.540;18.784;2023-07-20T03:33:57;6.65;;;5.80;;
55776;SDS011;54079;44.540;18.784;2023-07-20T03:36:23;6.95;;;5.82;;
55776;SDS011;54079;44.540;18.784;2023-07-20T03:38:49;6.80;;;5.95;;
55776;SDS011;54079;44.540;18.784;2023-07-20T03:41:16;6.80;;;5.43;;
55776;SDS011;54079;44.540;18.784;2023-07-20T03:43:42;8.60;;;6.45;;
55776;SDS011;54079;44.540;18.784;2023-07-20T03:46:08;9.48;;;7.30;;
55776;SDS011;54079;44.540;18.784;2023-07-20T03:48:34;10.52;;;7.22;;
55776;SDS011;54079;44.540;18.784;2023-07-20T03:51:00;6.88;;;5.93;;
55776;SDS011;54079;44.540;18.784;2023-07-20T03:53:26;11.52;;;8.50;;
55776;SDS011;54079;44.540;18.784;2023-07-20T03:55:52;11.32;;;8.15;;
55776;SDS011;54079;44.540;18.784;2023-07-20T03:58:20;13.40;;;11.07;;
55776;SDS011;54079;44.540;18.784;2023-07-20T04:00:47;14.55;;;11.88;;
55776;SDS011;54079;44.540;18.784;2023-07-20T04:03:15;13.35;;;9.57;;
55776;SDS011;54079;44.540;18.784;2023-07-20T04:05:42;11.90;;;9.50;;
55776;SDS011;54079;44.540;18.784;2023-07-20T04:08:09;14.60;;;9.40;;
55776;SDS011;54079;44.540;18.784;2023-07-20T04:10:36;15.75;;;11.98;;
55776;SDS011;54079;44.540;18.784;2023-07-20T04:13:03;11.23;;;9.02;;
55776;SDS011;54079;44.540;18.784;2023-07-20T04:15:30;17.55;;;13.52;;
55776;SDS011;54079;44.540;18.784;2023-07-20T04:17:56;12.38;;;10.80;;
55776;SDS011;54079;44.540;18.784;2023-07-20T04:20:23;14.95;;;12.82;;
55776;SDS011;54079;44.540;18.784;2023-07-20T04:22:49;16.13;;;13.50;;
55776;SDS011;54079;44.540;18.784;2023-07-20T04:25:16;13.05;;;11.35;;
55776;SDS011;54079;44.540;18.784;2023-07-20T04:27:42;11.88;;;8.75;;
55776;SDS011;54079;44.540;18.784;2023-07-20T04:30:10;15.57;;;10.30;;
55776;SDS011;54079;44.540;18.784;2023-07-20T04:32:36;13.77;;;8.90;;
55776;SDS011;54079;44.540;18.784;2023-07-20T04:35:06;10.77;;;8.07;;
55776;SDS011;54079;44.540;18.784;2023-07-20T04:37:33;12.18;;;9.50;;
55776;SDS011;54079;44.540;18.784;2023-07-20T04:39:59;10.07;;;7.53;;
55776;SDS011;54079;44.540;18.784;2023-07-20T04:42:25;10.82;;;7.60;;
55776;SDS011;54079;44.540;18.784;2023-07-20T04:44:51;7.05;;;6.25;;
55776;SDS011;54079;44.540;18.784;2023-07-20T04:47:16;7.80;;;5.25;;
55776;SDS011;54079;44.540;18.784;2023-07-20T04:49:42;6.82;;;4.97;;
55776;SDS011;54079;44.540;18.784;2023-07-20T04:52:08;11.18;;;7.00;;
55776;SDS011;54079;44.540;18.784;2023-07-20T04:54:34;10.40;;;7.25;;
55776;SDS011;54079;44.540;18.784;2023-07-20T04:57:00;13.30;;;9.25;;
55776;SDS011;54079;44.540;18.784;2023-07-20T04:59:26;9.40;;;8.38;;
55776;SDS011;54079;44.540;18.784;2023-07-20T05:01:52;12.35;;;8.57;;
55776;SDS011;54079;44.540;18.784;2023-07-20T05:04:18;11.75;;;7.95;;
55776;SDS011;54079;44.540;18.784;2023-07-20T05:06:44;10.25;;;7.50;;
55776;SDS011;54079;44.540;18.784;2023-07-20T05:09:10;8.68;;;6.20;;
55776;SDS011;54079;44.540;18.784;2023-07-20T05:11:36;5.22;;;4.60;;
55776;SDS011;54079;44.540;18.784;2023-07-20T05:14:02;8.65;;;5.47;;
55776;SDS011;54079;44.540;18.784;2023-07-20T05:16:28;6.15;;;5.20;;
55776;SDS011;54079;44.540;18.784;2023-07-20T05:18:54;5.35;;;4.35;;
55776;SDS011;54079;44.540;18.784;2023-07-20T05:21:22;5.38;;;3.65;;
55776;SDS011;54079;44.540;18.784;2023-07-20T05:23:48;4.60;;;2.78;;
55776;SDS011;54079;44.540;18.784;2023-07-20T05:26:14;4.07;;;3.33;;
55776;SDS011;54079;44.540;18.784;2023-07-20T05:28:40;3.53;;;3.22;;
55776;SDS011;54079;44.540;18.784;2023-07-20T05:31:06;4.50;;;2.90;;
55776;SDS011;54079;44.540;18.784;2023-07-20T05:33:32;5.05;;;3.10;;
55776;SDS011;54079;44.540;18.784;2023-07-20T05:35:58;3.75;;;2.80;;
55776;SDS011;54079;44.540;18.784;2023-07-20T05:38:24;3.40;;;2.20;;
55776;SDS011;54079;44.540;18.784;2023-07-20T05:40:50;2.97;;;2.67;;
55776;SDS011;54079;44.540;18.784;2023-07-20T05:43:16;4.50;;;3.13;;
55776;SDS011;54079;44.540;18.784;2023-07-20T05:45:42;2.92;;;2.50;;
55776;SDS011;54079;44.540;18.784;2023-07-20T05:48:10;3.95;;;2.30;;
55776;SDS011;54079;44.540;18.784;2023-07-20T05:50:37;3.58;;;2.70;;
55776;SDS011;54079;44.540;18.784;2023-07-20T05:53:03;2.65;;;2.45;;
55776;SDS011;54079;44.540;18.784;2023-07-20T05:55:29;2.60;;;2.40;;
55776;SDS011;54079;44.540;18.784;2023-07-20T05:57:56;3.53;;;3.20;;
55776;SDS011;54079;44.540;18.784;2023-07-20T06:00:22;2.83;;;2.63;;
55776;SDS011;54079;44.540;18.784;2023-07-20T06:02:52;2.58;;;2.38;;
55776;SDS011;54079;44.540;18.784;2023-07-20T06:05:18;4.13;;;3.30;;
55776;SDS011;54079;44.540;18.784;2023-07-20T06:07:46;3.15;;;2.95;;
55776;SDS011;54079;44.540;18.784;2023-07-20T06:10:12;3.25;;;2.95;;
55776;SDS011;54079;44.540;18.784;2023-07-20T06:12:38;4.65;;;3.72;;
55776;SDS011;54079;44.540;18.784;2023-07-20T06:15:04;3.20;;;3.00;;
55776;SDS011;54079;44.540;18.784;2023-07-20T06:17:31;4.35;;;3.42;;
55776;SDS011;54079;44.540;18.784;2023-07-20T06:19:57;4.47;;;4.07;;
55776;SDS011;54079;44.540;18.784;2023-07-20T06:22:23;3.10;;;2.80;;
55776;SDS011;54079;44.540;18.784;2023-07-20T06:24:49;3.47;;;3.05;;
55776;SDS011;54079;44.540;18.784;2023-07-20T06:27:14;2.95;;;2.75;;
55776;SDS011;54079;44.540;18.784;2023-07-20T06:29:41;3.00;;;2.70;;
55776;SDS011;54079;44.540;18.784;2023-07-20T06:32:07;3.20;;;2.90;;
55776;SDS011;54079;44.540;18.784;2023-07-20T06:34:33;3.28;;;2.97;;
55776;SDS011;54079;44.540;18.784;2023-07-20T06:37:02;3.10;;;2.90;;
55776;SDS011;54079;44.540;18.784;2023-07-20T06:39:29;4.72;;;3.15;;
55776;SDS011;54079;44.540;18.784;2023-07-20T06:41:55;2.85;;;2.65;;
55776;SDS011;54079;44.540;18.784;2023-07-20T06:44:21;2.78;;;2.58;;
55776;SDS011;54079;44.540;18.784;2023-07-20T06:46:48;2.78;;;2.58;;
55776;SDS011;54079;44.540;18.784;2023-07-20T06:49:23;2.70;;;2.50;;
55776;SDS011;54079;44.540;18.784;2023-07-20T06:51:51;2.97;;;2.78;;
55776;SDS011;54079;44.540;18.784;2023-07-20T06:54:17;2.58;;;2.38;;
55776;SDS011;54079;44.540;18.784;2023-07-20T06:56:43;2.75;;;2.47;;
55776;SDS011;54079;44.540;18.784;2023-07-20T06:59:09;2.85;;;2.60;;
55776;SDS011;54079;44.540;18.784;2023-07-20T07:01:35;2.45;;;2.33;;
55776;SDS011;54079;44.540;18.784;2023-07-20T07:04:01;2.80;;;2.30;;
55776;SDS011;54079;44.540;18.784;2023-07-20T07:06:26;2.22;;;2.03;;
55776;SDS011;54079;44.540;18.784;2023-07-20T07:08:53;2.10;;;1.90;;
55776;SDS011;54079;44.540;18.784;2023-07-20T07:11:20;2.97;;;1.98;;
55776;SDS011;54079;44.540;18.784;2023-07-20T07:13:48;1.95;;;1.77;;
55776;SDS011;54079;44.540;18.784;2023-07-20T07:16:16;1.73;;;1.63;;
55776;SDS011;54079;44.540;18.784;2023-07-20T07:18:44;1.67;;;1.55;;
55776;SDS011;54079;44.540;18.784;2023-07-20T07:21:10;1.85;;;1.73;;
55776;SDS011;54079;44.540;18.784;2023-07-20T07:23:37;2.60;;;2.40;;
55776;SDS011;54079;44.540;18.784;2023-07-20T07:26:04;2.70;;;2.50;;
55776;SDS011;54079;44.540;18.784;2023-07-20T07:28:30;2.63;;;2.17;;
55776;SDS011;54079;44.540;18.784;2023-07-20T07:30:57;3.13;;;2.78;;
55776;SDS011;54079;44.540;18.784;2023-07-20T07:33:23;2.00;;;1.90;;
55776;SDS011;54079;44.540;18.784;2023-07-20T07:35:52;2.97;;;2.28;;
55776;SDS011;54079;44.540;18.784;2023-07-20T07:38:18;2.22;;;2.03;;
55776;SDS011;54079;44.540;18.784;2023-07-20T07:40:44;2.00;;;1.90;;
55776;SDS011;54079;44.540;18.784;2023-07-20T07:43:11;2.25;;;2.15;;
55776;SDS011;54079;44.540;18.784;2023-07-20T07:45:39;2.75;;;1.70;;
55776;SDS011;54079;44.540;18.784;2023-07-20T07:48:05;1.67;;;1.58;;
55776;SDS011;54079;44.540;18.784;2023-07-20T07:50:32;2.60;;;2.40;;
55776;SDS011;54079;44.540;18.784;2023-07-20T07:52:59;1.85;;;1.63;;
55776;SDS011;54079;44.540;18.784;2023-07-20T07:55:25;1.98;;;1.88;;
55776;SDS011;54079;44.540;18.784;2023-07-20T07:57:54;2.07;;;1.90;;
55776;SDS011;54079;44.540;18.784;2023-07-20T08:00:20;3.72;;;2.08;;
55776;SDS011;54079;44.540;18.784;2023-07-20T08:02:46;1.98;;;1.60;;
55776;SDS011;54079;44.540;18.784;2023-07-20T08:05:13;2.35;;;2.03;;
55776;SDS011;54079;44.540;18.784;2023-07-20T08:07:39;2.42;;;2.10;;
55776;SDS011;54079;44.540;18.784;2023-07-20T08:10:05;2.30;;;2.05;;
55776;SDS011;54079;44.540;18.784;2023-07-20T08:12:32;2.22;;;2.03;;
55776;SDS011;54079;44.540;18.784;2023-07-20T08:14:58;2.05;;;1.90;;
55776;SDS011;54079;44.540;18.784;2023-07-20T08:17:24;2.00;;;1.90;;
55776;SDS011;54079;44.540;18.784;2023-07-20T08:19:50;2.15;;;1.90;;
55776;SDS011;54079;44.540;18.784;2023-07-20T08:22:16;2.45;;;1.83;;
55776;SDS011;54079;44.540;18.784;2023-07-20T08:24:43;2.55;;;1.80;;
55776;SDS011;54079;44.540;18.784;2023-07-20T08:27:09;4.20;;;2.58;;
55776;SDS011;54079;44.540;18.784;2023-07-20T08:29:35;2.65;;;1.98;;
55776;SDS011;54079;44.540;18.784;2023-07-20T08:32:02;1.67;;;1.58;;
55776;SDS011;54079;44.540;18.784;2023-07-20T08:34:29;2.88;;;2.10;;
55776;SDS011;54079;44.540;18.784;2023-07-20T08:36:56;3.15;;;1.33;;
55776;SDS011;54079;44.540;18.784;2023-07-20T08:39:25;3.15;;;2.47;;
55776;SDS011;54079;44.540;18.784;2023-07-20T08:41:51;2.42;;;2.10;;
55776;SDS011;54079;44.540;18.784;2023-07-20T08:44:17;2.55;;;2.20;;
55776;SDS011;54079;44.540;18.784;2023-07-20T08:46:43;2.63;;;2.20;;
55776;SDS011;54079;44.540;18.784;2023-07-20T08:49:11;4.63;;;2.13;;
55776;SDS011;54079;44.540;18.784;2023-07-20T08:51:37;1.77;;;1.67;;
55776;SDS011;54079;44.540;18.784;2023-07-20T08:54:04;5.40;;;2.03;;
55776;SDS011;54079;44.540;18.784;2023-07-20T08:56:31;1.67;;;1.58;;
55776;SDS011;54079;44.540;18.784;2023-07-20T08:58:59;2.00;;;1.80;;
55776;SDS011;54079;44.540;18.784;2023-07-20T09:01:26;2.30;;;2.10;;
55776;SDS011;54079;44.540;18.784;2023-07-20T09:03:54;3.17;;;2.75;;
55776;SDS011;54079;44.540;18.784;2023-07-20T09:06:21;3.08;;;2.38;;
55776;SDS011;54079;44.540;18.784;2023-07-20T09:08:47;2.42;;;1.55;;
55776;SDS011;54079;44.540;18.784;2023-07-20T09:11:13;3.65;;;2.30;;
55776;SDS011;54079;44.540;18.784;2023-07-20T09:13:39;2.38;;;2.00;;
55776;SDS011;54079;44.540;18.784;2023-07-20T09:16:05;3.95;;;2.35;;
55776;SDS011;54079;44.540;18.784;2023-07-20T09:18:32;1.95;;;1.63;;
55776;SDS011;54079;44.540;18.784;2023-07-20T09:21:02;1.63;;;1.52;;
55776;SDS011;54079;44.540;18.784;2023-07-20T09:23:30;2.60;;;2.40;;
55776;SDS011;54079;44.540;18.784;2023-07-20T09:25:57;2.80;;;1.83;;
55776;SDS011;54079;44.540;18.784;2023-07-20T09:28:23;3.33;;;1.95;;
55776;SDS011;54079;44.540;18.784;2023-07-20T09:30:49;3.35;;;2.35;;
55776;SDS011;54079;44.540;18.784;2023-07-20T09:33:19;3.53;;;2.38;;
55776;SDS011;54079;44.540;18.784;2023-07-20T09:35:47;1.75;;;1.65;;
55776;SDS011;54079;44.540;18.784;2023-07-20T09:38:14;2.78;;;2.17;;
55776;SDS011;54079;44.540;18.784;2023-07-20T09:40:40;2.47;;;1.67;;
55776;SDS011;54079;44.540;18.784;2023-07-20T09:43:07;2.53;;;1.80;;
55776;SDS011;54079;44.540;18.784;2023-07-20T09:45:34;4.50;;;2.10;;
55776;SDS011;54079;44.540;18.784;2023-07-20T09:48:07;2.00;;;1.90;;
55776;SDS011;54079;44.540;18.784;2023-07-20T09:51:09;2.75;;;2.05;;
55776;SDS011;54079;44.540;18.784;2023-07-20T09:53:30;2.30;;;1.80;;
55776;SDS011;54079;44.540;18.784;2023-07-20T09:56:03;3.65;;;2.03;;
55776;SDS011;54079;44.540;18.784;2023-07-20T09:58:30;6.15;;;2.65;;
55776;SDS011;54079;44.540;18.784;2023-07-20T10:01:00;2.88;;;2.40;;
55776;SDS011;54079;44.540;18.784;2023-07-20T10:03:31;2.15;;;1.63;;
55776;SDS011;54079;44.540;18.784;2023-07-20T10:06:00;3.83;;;2.38;;
55776;SDS011;54079;44.540;18.784;2023-07-20T10:08:31;4.03;;;2.47;;
55776;SDS011;54079;44.540;18.784;2023-07-20T10:11:00;4.82;;;2.72;;
55776;SDS011;54079;44.540;18.784;2023-07-20T10:13:29;6.30;;;2.83;;
55776;SDS011;54079;44.540;18.784;2023-07-20T10:16:01;2.95;;;2.40;;
55776;SDS011;54079;44.540;18.784;2023-07-20T10:18:50;5.07;;;1.95;;
55776;SDS011;54079;44.540;18.784;2023-07-20T10:21:24;4.05;;;2.40;;
55776;SDS011;54079;44.540;18.784;2023-07-20T10:23:51;2.17;;;1.98;;
55776;SDS011;54079;44.540;18.784;2023-07-20T10:26:17;4.32;;;2.65;;
55776;SDS011;54079;44.540;18.784;2023-07-20T10:28:43;2.30;;;1.80;;
55776;SDS011;54079;44.540;18.784;2023-07-20T10:31:12;2.30;;;2.10;;
55776;SDS011;54079;44.540;18.784;2023-07-20T10:33:40;3.70;;;2.60;;
55776;SDS011;54079;44.540;18.784;2023-07-20T10:36:07;2.75;;;2.20;;
55776;SDS011;54079;44.540;18.784;2023-07-20T10:41:20;2.20;;;2.00;;
55776;SDS011;54079;44.540;18.784;2023-07-20T10:43:50;3.40;;;3.10;;
55776;SDS011;54079;44.540;18.784;2023-07-20T10:47:01;5.03;;;3.17;;
55776;SDS011;54079;44.540;18.784;2023-07-20T10:49:05;3.35;;;3.05;;
55776;SDS011;54079;44.540;18.784;2023-07-20T10:52:05;3.08;;;2.63;;
55776;SDS011;54079;44.540;18.784;2023-07-20T10:56:51;3.47;;;3.17;;
55776;SDS011;54079;44.540;18.784;2023-07-20T10:59:18;4.35;;;3.00;;
55776;SDS011;54079;44.540;18.784;2023-07-20T11:01:49;3.15;;;2.95;;
55776;SDS011;54079;44.540;18.784;2023-07-20T11:04:16;2.35;;;2.15;;
55776;SDS011;54079;44.540;18.784;2023-07-20T11:06:45;3.30;;;2.78;;
55776;SDS011;54079;44.540;18.784;2023-07-20T11:09:21;4.40;;;2.72;;
55776;SDS011;54079;44.540;18.784;2023-07-20T11:11:50;3.28;;;2.58;;
55776;SDS011;54079;44.540;18.784;2023-07-20T11:17:15;4.72;;;2.67;;
55776;SDS011;54079;44.540;18.784;2023-07-20T11:19:47;3.90;;;3.00;;
55776;SDS011;54079;44.540;18.784;2023-07-20T11:22:16;2.90;;;2.53;;
55776;SDS011;54079;44.540;18.784;2023-07-20T11:24:42;2.63;;;2.42;;
55776;SDS011;54079;44.540;18.784;2023-07-20T11:27:09;2.80;;;2.50;;
55776;SDS011;54079;44.540;18.784;2023-07-20T11:29:35;2.85;;;2.40;;
55776;SDS011;54079;44.540;18.784;2023-07-20T11:32:03;3.30;;;3.00;;
55776;SDS011;54079;44.540;18.784;2023-07-20T11:34:30;3.40;;;2.78;;
55776;SDS011;54079;44.540;18.784;2023-07-20T11:36:56;3.75;;;2.90;;
55776;SDS011;54079;44.540;18.784;2023-07-20T11:39:23;2.78;;;2.58;;
55776;SDS011;54079;44.540;18.784;2023-07-20T11:41:51;4.50;;;2.78;;
55776;SDS011;54079;44.540;18.784;2023-07-20T11:44:18;2.42;;;2.22;;
55776;SDS011;54079;44.540;18.784;2023-07-20T11:47:01;4.05;;;2.70;;
55776;SDS011;54079;44.540;18.784;2023-07-20T11:49:38;5.20;;;3.17;;
55776;SDS011;54079;44.540;18.784;2023-07-20T11:52:09;4.65;;;3.80;;
55776;SDS011;54079;44.540;18.784;2023-07-20T11:54:40;3.22;;;2.83;;
55776;SDS011;54079;44.540;18.784;2023-07-20T11:57:07;2.85;;;2.65;;
55776;SDS011;54079;44.540;18.784;2023-07-20T11:59:52;2.67;;;2.47;;
55776;SDS011;54079;44.540;18.784;2023-07-20T12:02:29;2.63;;;2.42;;
55776;SDS011;54079;44.540;18.784;2023-07-20T12:04:56;3.03;;;2.72;;
55776;SDS011;54079;44.540;18.784;2023-07-20T12:07:22;2.70;;;2.50;;
55776;SDS011;54079;44.540;18.784;2023-07-20T12:10:03;3.17;;;2.88;;
55776;SDS011;54079;44.540;18.784;2023-07-20T12:12:34;3.47;;;3.17;;
55776;SDS011;54079;44.540;18.784;2023-07-20T12:17:59;3.70;;;3.40;;
55776;SDS011;54079;44.540;18.784;2023-07-20T12:20:26;3.95;;;3.65;;
55776;SDS011;54079;44.540;18.784;2023-07-20T12:22:52;4.80;;;3.40;;
55776;SDS011;54079;44.540;18.784;2023-07-20T12:25:20;3.55;;;3.10;;
55776;SDS011;54079;44.540;18.784;2023-07-20T12:27:47;3.17;;;2.88;;
55776;SDS011;54079;44.540;18.784;2023-07-20T12:30:13;3.17;;;2.80;;
55776;SDS011;54079;44.540;18.784;2023-07-20T12:32:39;3.33;;;2.80;;
55776;SDS011;54079;44.540;18.784;2023-07-20T12:35:05;2.72;;;2.53;;
55776;SDS011;54079;44.540;18.784;2023-07-20T12:37:33;3.08;;;2.78;;
55776;SDS011;54079;44.540;18.784;2023-07-20T12:39:59;4.20;;;3.33;;
55776;SDS011;54079;44.540;18.784;2023-07-20T12:42:25;5.05;;;3.28;;
55776;SDS011;54079;44.540;18.784;2023-07-20T12:44:51;4.15;;;3.83;;
55776;SDS011;54079;44.540;18.784;2023-07-20T12:47:17;3.03;;;2.60;;
55776;SDS011;54079;44.540;18.784;2023-07-20T12:49:44;3.08;;;2.50;;
55776;SDS011;54079;44.540;18.784;2023-07-20T12:52:10;2.92;;;2.63;;
55776;SDS011;54079;44.540;18.784;2023-07-20T12:54:36;2.55;;;2.35;;
55776;SDS011;54079;44.540;18.784;2023-07-20T12:57:02;5.40;;;3.00;;
55776;SDS011;54079;44.540;18.784;2023-07-20T12:59:29;2.97;;;2.70;;
55776;SDS011;54079;44.540;18.784;2023-07-20T13:01:55;2.90;;;2.60;;
55776;SDS011;54079;44.540;18.784;2023-07-20T13:04:21;2.35;;;2.15;;
55776;SDS011;54079;44.540;18.784;2023-07-20T13:06:47;2.78;;;2.38;;
55776;SDS011;54079;44.540;18.784;2023-07-20T13:09:13;3.40;;;2.85;;
55776;SDS011;54079;44.540;18.784;2023-07-20T13:11:39;2.70;;;2.47;;
55776;SDS011;54079;44.540;18.784;2023-07-20T13:14:05;2.78;;;2.55;;
55776;SDS011;54079;44.540;18.784;2023-07-20T13:16:30;3.00;;;2.20;;
55776;SDS011;54079;44.540;18.784;2023-07-20T13:18:56;2.70;;;2.47;;
55776;SDS011;54079;44.540;18.784;2023-07-20T13:21:22;3.30;;;2.30;;
55776;SDS011;54079;44.540;18.784;2023-07-20T13:23:49;3.47;;;3.17;;
55776;SDS011;54079;44.540;18.784;2023-07-20T13:26:15;3.17;;;2.88;;
55776;SDS011;54079;44.540;18.784;2023-07-20T13:28:41;3.03;;;2.75;;
55776;SDS011;54079;44.540;18.784;2023-07-20T13:31:07;5.35;;;3.10;;
55776;SDS011;54079;44.540;18.784;2023-07-20T13:33:35;2.83;;;2.53;;
55776;SDS011;54079;44.540;18.784;2023-07-20T13:36:01;2.63;;;2.40;;
55776;SDS011;54079;44.540;18.784;2023-07-20T13:38:29;4.53;;;3.15;;
55776;SDS011;54079;44.540;18.784;2023-07-20T13:40:55;3.10;;;2.33;;
55776;SDS011;54079;44.540;18.784;2023-07-20T13:43:21;2.95;;;2.72;;
55776;SDS011;54079;44.540;18.784;2023-07-20T13:45:47;2.50;;;2.30;;
55776;SDS011;54079;44.540;18.784;2023-07-20T13:48:13;2.72;;;2.53;;
55776;SDS011;54079;44.540;18.784;2023-07-20T13:50:40;3.65;;;3.35;;
55776;SDS011;54079;44.540;18.784;2023-07-20T13:53:06;2.30;;;2.10;;
55776;SDS011;54079;44.540;18.784;2023-07-20T13:55:32;4.00;;;3.70;;
55776;SDS011;54079;44.540;18.784;2023-07-20T13:58:01;4.15;;;2.75;;
55776;SDS011;54079;44.540;18.784;2023-07-20T14:00:28;3.38;;;3.05;;
55776;SDS011;54079;44.540;18.784;2023-07-20T14:02:58;3.03;;;2.72;;
55776;SDS011;54079;44.540;18.784;2023-07-20T14:05:24;2.55;;;2.35;;
55776;SDS011;54079;44.540;18.784;2023-07-20T14:07:50;3.03;;;2.72;;
55776;SDS011;54079;44.540;18.784;2023-07-20T14:10:17;2.50;;;2.30;;
55776;SDS011;54079;44.540;18.784;2023-07-20T14:12:43;3.45;;;2.80;;
55776;SDS011;54079;44.540;18.784;2023-07-20T14:15:10;2.97;;;2.72;;
55776;SDS011;54079;44.540;18.784;2023-07-20T14:17:36;3.30;;;2.85;;
55776;SDS011;54079;44.540;18.784;2023-07-20T14:20:03;2.78;;;2.58;;
55776;SDS011;54079;44.540;18.784;2023-07-20T14:22:31;3.45;;;3.15;;
55776;SDS011;54079;44.540;18.784;2023-07-20T14:24:57;3.92;;;3.50;;
55776;SDS011;54079;44.540;18.784;2023-07-20T14:27:24;3.40;;;3.00;;
55776;SDS011;54079;44.540;18.784;2023-07-20T14:29:50;3.88;;;2.47;;
55776;SDS011;54079;44.540;18.784;2023-07-20T14:32:16;4.15;;;3.08;;
55776;SDS011;54079;44.540;18.784;2023-07-20T14:34:42;2.92;;;2.72;;
55776;SDS011;54079;44.540;18.784;2023-07-20T14:37:08;2.85;;;2.30;;
55776;SDS011;54079;44.540;18.784;2023-07-20T14:39:35;4.25;;;2.67;;
55776;SDS011;54079;44.540;18.784;2023-07-20T14:42:01;3.28;;;2.88;;
55776;SDS011;54079;44.540;18.784;2023-07-20T14:44:29;4.47;;;3.78;;
55776;SDS011;54079;44.540;18.784;2023-07-20T14:46:58;2.55;;;2.33;;
55776;SDS011;54079;44.540;18.784;2023-07-20T14:49:29;3.15;;;2.42;;